Terminal Aerodrome Forecast
Issued by NWS Brownsville, TX

Home | Current Version | Previous Version | Text Only | Print | Product List | Glossary On
Versions: 1 2 3 4 5 6 7 8 9 10 11 12 13 14
000
FTUS44 KBRO 252300
TAFMFE
TAF
KMFE 252320Z 2600/2624 13020G26KT P6SM SKC
     FM260200 15013KT P6SM SKC
     FM261500 16017KT P6SM SKC=

USA.gov is the U.S. government's official web portal to all federal, state and local government web resources and services.